Time;durP1;ratioP1;P1;durP2;ratioP2;P2;SDS_P1;SDS_P2;PMS_P1;PMS_P2;Temp;Humidity;BMP_temperature;BMP_pressure;BME280_temperature;BME280_humidity;BME280_pressure;Samples;Min_cycle;Max_cycle;Signal;HPM_P1;HPM_P2
2023/04/10 00:00:09;;;;;;;17.17;13.57;;;10.30;56.70;;;;;;4997197;28;20021;-85
2023/04/10 00:02:36;;;;;;;18.67;12.60;;;10.30;56.90;;;;;;4999207;28;20034;-87
2023/04/10 00:05:02;;;;;;;17.03;13.03;;;10.30;57.00;;;;;;4996027;28;20387;-85
2023/04/10 00:07:28;;;;;;;17.55;13.43;;;10.30;56.90;;;;;;5014229;28;20053;-85
2023/04/10 00:09:54;;;;;;;19.77;13.40;;;10.30;56.70;;;;;;4999139;28;20022;-85
2023/04/10 00:12:20;;;;;;;16.15;12.65;;;10.30;56.90;;;;;;4986115;28;20045;-84
2023/04/10 00:14:46;;;;;;;21.67;14.05;;;10.40;56.90;;;;;;5011726;28;20045;-84
2023/04/10 00:17:12;;;;;;;21.45;13.65;;;10.40;56.70;;;;;;5019541;28;20026;-84
2023/04/10 00:19:37;;;;;;;22.55;12.77;;;10.40;56.70;;;;;;5025863;28;20049;-84
2023/04/10 00:22:04;;;;;;;23.58;12.75;;;10.50;56.60;;;;;;5011933;28;20030;-83
2023/04/10 00:24:30;;;;;;;16.13;12.50;;;10.50;56.50;;;;;;5007831;28;20436;-83
2023/04/10 00:26:56;;;;;;;22.52;13.65;;;10.50;56.60;;;;;;5018534;28;20049;-83
2023/04/10 00:29:23;;;;;;;18.55;12.85;;;10.50;56.60;;;;;;5004148;28;20110;-84
2023/04/10 00:31:49;;;;;;;18.90;14.07;;;10.50;56.90;;;;;;5001350;28;20030;-83
2023/04/10 00:34:15;;;;;;;19.95;14.38;;;10.60;57.00;;;;;;5013723;28;20384;-84
2023/04/10 00:36:41;;;;;;;20.35;13.45;;;10.60;56.70;;;;;;5005173;28;20075;-83
2023/04/10 00:39:08;;;;;;;22.77;14.05;;;10.60;56.70;;;;;;5015908;28;20033;-82
2023/04/10 00:41:34;;;;;;;20.65;12.52;;;10.70;56.60;;;;;;5016592;28;20006;-82
2023/04/10 00:44:00;;;;;;;18.00;12.15;;;10.70;56.80;;;;;;5005059;28;20492;-83
2023/04/10 00:46:27;;;;;;;18.88;12.65;;;10.70;56.20;;;;;;5012769;28;20016;-84
2023/04/10 00:48:55;;;;;;;19.58;13.40;;;10.70;56.10;;;;;;5003925;28;20526;-85
2023/04/10 00:51:21;;;;;;;18.58;12.50;;;10.70;55.90;;;;;;5020815;28;20077;-85
2023/04/10 00:53:52;;;;;;;19.57;12.67;;;10.70;55.90;;;;;;5000484;28;20080;-86
2023/04/10 00:56:19;;;;;;;17.83;12.60;;;10.70;55.80;;;;;;5017203;28;20025;-85
2023/04/10 00:58:46;;;;;;;17.48;12.55;;;10.70;55.80;;;;;;5012414;28;20034;-85
2023/04/10 01:01:12;;;;;;;17.27;12.00;;;10.70;55.90;;;;;;4999289;28;20574;-84
2023/04/10 01:03:42;;;;;;;16.98;12.68;;;10.70;56.00;;;;;;5019433;28;20025;-85
2023/04/10 01:06:34;;;;;;;24.88;13.55;;;10.70;56.10;;;;;;5020035;28;20083;-85
2023/04/10 01:09:13;;;;;;;18.73;12.40;;;10.70;56.50;;;;;;5017251;28;20096;-85
2023/04/10 01:12:05;;;;;;;18.58;13.80;;;10.70;56.70;;;;;;5017090;28;20022;-84
2023/04/10 01:14:34;;;;;;;21.48;14.00;;;10.70;56.80;;;;;;5009747;28;20022;-84
2023/04/10 01:17:06;;;;;;;16.55;13.77;;;10.60;56.90;;;;;;5026203;28;20102;-83
2023/04/10 01:19:37;;;;;;;21.70;13.05;;;10.50;57.00;;;;;;5033732;28;20014;-84
2023/04/10 01:22:09;;;;;;;21.88;15.10;;;10.50;57.20;;;;;;5018213;28;20395;-85
2023/04/10 01:25:00;;;;;;;20.30;14.13;;;10.50;57.30;;;;;;5010757;28;20060;-85
2023/04/10 01:27:32;;;;;;;22.88;14.40;;;10.50;57.60;;;;;;5031261;28;20020;-84
2023/04/10 01:30:01;;;;;;;21.27;14.57;;;10.50;57.50;;;;;;5018868;28;20041;-85
2023/04/10 01:32:31;;;;;;;19.67;13.80;;;10.40;57.40;;;;;;5024451;28;20034;-85
2023/04/10 01:35:00;;;;;;;20.95;14.65;;;10.40;57.60;;;;;;5020839;28;20041;-85
2023/04/10 01:37:30;;;;;;;21.77;13.30;;;10.40;57.80;;;;;;5028227;28;20087;-85
2023/04/10 01:40:07;;;;;;;19.65;13.18;;;10.40;57.80;;;;;;5001553;28;20025;-85
2023/04/10 01:42:37;;;;;;;24.23;14.27;;;10.40;57.90;;;;;;5015924;28;20068;-83
2023/04/10 01:45:06;;;;;;;21.30;13.68;;;10.30;58.00;;;;;;4978972;28;20511;-85
2023/04/10 01:47:33;;;;;;;22.05;15.07;;;10.30;58.00;;;;;;5008742;28;20056;-85
2023/04/10 01:50:00;;;;;;;20.27;14.52;;;10.30;58.20;;;;;;5014167;28;20022;-84
2023/04/10 01:52:27;;;;;;;21.67;14.70;;;10.30;58.30;;;;;;5016416;28;20030;-85
2023/04/10 01:54:55;;;;;;;22.98;15.07;;;10.30;58.40;;;;;;5014619;28;20073;-85
2023/04/10 01:57:21;;;;;;;19.83;15.35;;;10.30;58.40;;;;;;5015157;28;20522;-84
2023/04/10 01:59:47;;;;;;;21.15;15.52;;;10.30;58.60;;;;;;4997247;28;20037;-83
2023/04/10 02:02:13;;;;;;;23.88;17.55;;;10.30;58.70;;;;;;4997772;28;20049;-86
2023/04/10 02:04:38;;;;;;;24.65;16.98;;;10.20;58.70;;;;;;5016490;28;20123;-85
2023/04/10 02:07:31;;;;;;;23.92;17.38;;;10.20;58.80;;;;;;5014287;28;20476;-84
2023/04/10 02:10:15;;;;;;;26.30;16.42;;;10.30;59.10;;;;;;5025449;28;20029;-85
2023/04/10 02:12:52;;;;;;;23.70;17.35;;;10.20;59.00;;;;;;5034383;28;20048;-84
2023/04/10 02:15:21;;;;;;;28.17;17.10;;;10.20;59.10;;;;;;5019138;28;20033;-85
2023/04/10 02:17:48;;;;;;;23.13;17.17;;;10.20;59.20;;;;;;5013904;28;20324;-84
2023/04/10 02:20:17;;;;;;;25.38;17.08;;;10.20;59.40;;;;;;5033799;28;20104;-84
2023/04/10 02:22:43;;;;;;;20.00;16.65;;;10.20;59.40;;;;;;5018280;28;20125;-84
2023/04/10 02:25:10;;;;;;;25.30;15.88;;;10.20;59.60;;;;;;5027151;28;20113;-84
2023/04/10 02:27:37;;;;;;;24.65;17.20;;;10.20;59.90;;;;;;5013636;28;20019;-86
2023/04/10 02:30:04;;;;;;;25.70;16.00;;;10.20;60.00;;;;;;5009225;28;20037;-86
2023/04/10 02:32:32;;;;;;;26.60;17.63;;;10.20;60.10;;;;;;5001327;28;20033;-85
2023/04/10 02:34:58;;;;;;;23.83;17.60;;;10.20;60.20;;;;;;5010195;28;20030;-88
2023/04/10 02:37:24;;;;;;;22.92;16.80;;;10.20;60.50;;;;;;5031282;28;20033;-86
2023/04/10 02:39:51;;;;;;;25.05;17.50;;;10.20;60.70;;;;;;5008643;28;20026;-87
2023/04/10 02:42:17;;;;;;;25.23;17.93;;;10.20;60.90;;;;;;5008771;28;20029;-86
2023/04/10 02:44:43;;;;;;;26.48;17.73;;;10.10;61.00;;;;;;4999298;28;20399;-86
2023/04/10 02:47:09;;;;;;;25.45;17.63;;;10.20;61.30;;;;;;5018876;28;20026;-87
2023/04/10 02:49:35;;;;;;;27.48;17.25;;;10.20;61.70;;;;;;5022952;28;20025;-87
2023/04/10 02:52:01;;;;;;;25.58;17.75;;;10.10;62.10;;;;;;5020057;28;20030;-88
2023/04/10 02:54:27;;;;;;;24.08;17.92;;;10.10;62.90;;;;;;5030515;28;20036;-86
2023/04/10 02:56:53;;;;;;;26.83;18.48;;;10.10;63.50;;;;;;5031715;28;20026;-87
2023/04/10 02:59:19;;;;;;;28.27;18.27;;;10.10;64.10;;;;;;5001437;28;20164;-88
2023/04/10 03:01:46;;;;;;;25.83;16.63;;;10.10;64.40;;;;;;4981744;28;20035;-86
2023/04/10 03:04:12;;;;;;;22.77;15.40;;;10.00;65.20;;;;;;4989181;28;20332;-86
2023/04/10 03:06:38;;;;;;;22.95;13.57;;;10.00;65.90;;;;;;5000156;28;20324;-87
2023/04/10 03:09:04;;;;;;;15.60;9.05;;;10.10;66.60;;;;;;4987913;28;20031;-84
2023/04/10 03:11:30;;;;;;;11.23;3.83;;;10.20;65.80;;;;;;4989858;28;20027;-84
2023/04/10 03:13:59;;;;;;;12.35;7.88;;;10.40;61.60;;;;;;5017015;28;20093;-86
2023/04/10 03:16:25;;;;;;;15.90;8.40;;;10.50;63.80;;;;;;5015863;28;20015;-84
2023/04/10 03:18:52;;;;;;;14.00;9.25;;;10.50;64.40;;;;;;5018423;28;20120;-83
2023/04/10 03:21:18;;;;;;;17.05;9.30;;;10.50;65.40;;;;;;5020362;28;20032;-84
2023/04/10 03:23:45;;;;;;;21.70;11.88;;;10.50;66.30;;;;;;5020279;28;20030;-86
2023/04/10 03:26:11;;;;;;;15.10;12.48;;;10.40;66.90;;;;;;5017408;28;20026;-84
2023/04/10 03:28:38;;;;;;;17.08;12.57;;;10.40;67.60;;;;;;5013126;28;20038;-88
2023/04/10 03:31:04;;;;;;;17.70;12.18;;;10.40;68.00;;;;;;5005168;28;20034;-87
2023/04/10 03:33:30;;;;;;;13.63;11.18;;;10.40;68.20;;;;;;4989815;28;20416;-87
2023/04/10 03:35:57;;;;;;;14.40;11.07;;;10.50;68.50;;;;;;4998847;28;20029;-86
2023/04/10 03:38:23;;;;;;;19.38;13.45;;;10.60;68.30;;;;;;4999587;28;20451;-84
2023/04/10 03:40:49;;;;;;;20.65;12.65;;;10.70;68.40;;;;;;4997633;28;20101;-85
2023/04/10 03:43:15;;;;;;;19.83;13.85;;;10.70;68.40;;;;;;4979575;28;20084;-84
2023/04/10 03:45:41;;;;;;;18.65;13.30;;;10.90;68.60;;;;;;4997157;28;20133;-84
2023/04/10 03:48:07;;;;;;;20.58;13.38;;;11.00;68.40;;;;;;4997552;28;20026;-84
2023/04/10 03:50:33;;;;;;;20.63;13.77;;;11.10;67.70;;;;;;4994735;28;20062;-85
2023/04/10 03:53:00;;;;;;;27.00;18.08;;;11.20;67.60;;;;;;4996544;28;20128;-85
2023/04/10 03:55:26;;;;;;;16.00;12.30;;;11.30;67.70;;;;;;4997869;28;20014;-85
2023/04/10 03:57:51;;;;;;;40.72;25.08;;;11.30;66.80;;;;;;4995844;28;20092;-84
2023/04/10 04:00:19;;;;;;;17.00;12.35;;;11.30;67.60;;;;;;4983191;28;20034;-86
2023/04/10 04:02:45;;;;;;;;;;;11.30;65.90;;;;;;5000705;28;20136;-83
2023/04/10 04:05:11;;;;;;;16.42;11.43;;;11.40;65.60;;;;;;4996800;28;20371;-85
2023/04/10 04:07:36;;;;;;;15.68;10.27;;;11.50;65.40;;;;;;4988972;28;20022;-85
2023/04/10 04:10:03;;;;;;;14.95;12.82;;;11.60;64.90;;;;;;5018520;28;20084;-85
2023/04/10 04:12:28;;;;;;;20.80;14.95;;;11.70;65.00;;;;;;5009162;28;20113;-84
2023/04/10 04:14:54;;;;;;;24.52;14.85;;;11.90;65.00;;;;;;5011425;28;20106;-85
2023/04/10 04:17:20;;;;;;;18.13;12.73;;;12.10;64.00;;;;;;5022191;28;20037;-86
2023/04/10 04:19:46;;;;;;;16.77;12.30;;;12.20;62.80;;;;;;5013459;28;20026;-86
2023/04/10 04:22:12;;;;;;;18.17;13.07;;;12.30;62.50;;;;;;5027447;28;20056;-88
2023/04/10 04:24:38;;;;;;;17.30;13.02;;;12.40;62.20;;;;;;5004400;28;20041;-86
2023/04/10 04:27:05;;;;;;;27.88;14.30;;;12.50;61.70;;;;;;5025310;28;20029;-85
2023/04/10 04:29:31;;;;;;;21.90;14.40;;;12.80;61.70;;;;;;5034047;28;20022;-85
2023/04/10 04:31:56;;;;;;;19.50;13.07;;;13.20;60.80;;;;;;5018089;28;20033;-88
2023/04/10 04:34:22;;;;;;;18.27;13.30;;;13.60;59.80;;;;;;5019756;28;20024;-85
2023/04/10 04:36:48;;;;;;;18.95;13.43;;;13.90;58.00;;;;;;5015710;28;20018;-85
2023/04/10 04:39:14;;;;;;;20.55;14.43;;;14.00;57.10;;;;;;5015257;28;20380;-84
2023/04/10 04:41:40;;;;;;;21.42;14.05;;;14.10;56.90;;;;;;5015807;28;20117;-85
2023/04/10 04:44:06;;;;;;;22.50;13.30;;;14.40;56.30;;;;;;5016389;28;20097;-85
2023/04/10 04:46:32;;;;;;;20.90;15.40;;;14.90;71.80;;;;;;5015882;28;20061;-85
2023/04/10 04:48:58;;;;;;;24.67;15.30;;;15.10;54.50;;;;;;5015844;28;20034;-85
2023/04/10 04:51:26;;;;;;;20.25;14.68;;;15.70;54.30;;;;;;5015799;28;20018;-85
2023/04/10 04:53:52;;;;;;;23.10;16.50;;;16.30;53.60;;;;;;4999781;28;20112;-85
2023/04/10 04:56:18;;;;;;;27.65;16.08;;;16.80;52.10;;;;;;4997595;28;20026;-85
2023/04/10 04:58:43;;;;;;;25.60;15.95;;;17.10;50.70;;;;;;5007467;28;20030;-85
2023/04/10 05:01:09;;;;;;;29.20;14.57;;;17.10;50.30;;;;;;4987387;28;20384;-85
2023/04/10 05:03:35;;;;;;;23.73;15.43;;;16.70;50.50;;;;;;4989811;28;20029;-86
2023/04/10 05:06:01;;;;;;;22.85;17.48;;;16.30;50.70;;;;;;5000496;28;20023;-86
2023/04/10 05:08:27;;;;;;;34.67;18.27;;;16.00;51.60;;;;;;5005762;28;20420;-85
2023/04/10 05:10:53;;;;;;;24.67;16.17;;;15.80;52.60;;;;;;4997410;28;20472;-85
2023/04/10 05:13:19;;;;;;;25.90;15.50;;;15.70;53.10;;;;;;4987622;28;20037;-84
2023/04/10 05:15:47;;;;;;;25.40;13.70;;;15.50;53.10;;;;;;5009301;28;20074;-85
2023/04/10 05:18:13;;;;;;;17.02;12.75;;;15.30;53.00;;;;;;5021958;28;20037;-85
2023/04/10 05:20:39;;;;;;;15.25;12.20;;;15.10;53.30;;;;;;5006992;28;20027;-83
2023/04/10 05:23:05;;;;;;;16.75;13.88;;;15.00;54.00;;;;;;5000918;28;20073;-86
2023/04/10 05:25:31;;;;;;;15.77;13.68;;;15.20;54.10;;;;;;4977145;28;20115;-86
2023/04/10 05:27:56;;;;;;;22.40;13.98;;;15.50;53.30;;;;;;5002108;28;20028;-86
2023/04/10 05:30:23;;;;;;;19.40;13.02;;;15.70;52.70;;;;;;5007142;28;20021;-85
2023/04/10 05:32:49;;;;;;;21.23;14.73;;;15.60;53.30;;;;;;5019512;28;20514;-85
2023/04/10 05:35:15;;;;;;;23.25;13.93;;;15.60;55.10;;;;;;4990945;28;20027;-85
2023/04/10 05:37:41;;;;;;;15.27;13.27;;;15.60;53.40;;;;;;4981688;28;20018;-86
2023/04/10 05:40:08;;;;;;;21.67;13.00;;;15.70;53.40;;;;;;4988774;28;20025;-86
2023/04/10 05:42:34;;;;;;;19.55;11.98;;;15.80;52.80;;;;;;4985908;28;20436;-83
2023/04/10 05:45:00;;;;;;;19.52;13.07;;;15.80;52.10;;;;;;4990339;28;20464;-84
2023/04/10 05:47:25;;;;;;;25.90;13.63;;;15.80;52.10;;;;;;4975177;28;20022;-83
2023/04/10 05:49:51;;;;;;;17.48;12.88;;;16.00;51.70;;;;;;4993357;28;20050;-85
2023/04/10 05:52:17;;;;;;;10.57;8.73;;;16.40;51.40;;;;;;4997748;28;20030;-84
2023/04/10 05:54:45;;;;;;;14.95;10.40;;;16.20;49.60;;;;;;4992981;28;20023;-89
2023/04/10 05:57:11;;;;;;;16.38;9.45;;;15.90;49.80;;;;;;4984601;28;20027;-87
2023/04/10 05:59:38;;;;;;;12.32;9.27;;;15.80;50.10;;;;;;5000380;28;20034;-86
2023/04/10 06:02:05;;;;;;;12.70;10.93;;;15.90;50.30;;;;;;4995625;28;20045;-84
2023/04/10 06:04:32;;;;;;;14.57;9.93;;;16.20;50.00;;;;;;5004005;28;20061;-84
2023/04/10 06:06:58;;;;;;;13.98;10.27;;;17.00;49.20;;;;;;4999412;28;20019;-85
2023/04/10 06:09:24;;;;;;;12.88;10.18;;;18.10;47.30;;;;;;5003949;28;20509;-86
2023/04/10 06:11:50;;;;;;;11.68;8.60;;;18.60;45.60;;;;;;4997685;28;20018;-84
2023/04/10 06:14:18;;;;;;;13.57;8.75;;;18.20;45.40;;;;;;4988084;28;20025;-86
2023/04/10 06:16:43;;;;;;;11.00;8.52;;;17.80;45.90;;;;;;5001004;28;20022;-84
2023/04/10 06:19:09;;;;;;;13.15;9.27;;;17.30;46.60;;;;;;4991729;28;20037;-85
2023/04/10 06:21:35;;;;;;;13.45;8.90;;;17.20;47.20;;;;;;5006329;28;20032;-84
2023/04/10 06:24:01;;;;;;;11.02;9.93;;;17.90;47.20;;;;;;5002658;28;20101;-84
2023/04/10 06:26:27;;;;;;;12.77;10.93;;;18.40;46.60;;;;;;5006119;28;20034;-83
2023/04/10 06:28:53;;;;;;;13.43;9.82;;;18.40;45.50;;;;;;4997447;28;20026;-84
2023/04/10 06:31:20;;;;;;;12.00;9.93;;;18.10;45.70;;;;;;4996901;28;20125;-84
2023/04/10 06:33:48;;;;;;;14.07;11.25;;;17.80;45.90;;;;;;4997334;28;20114;-84
2023/04/10 06:36:14;;;;;;;16.85;11.13;;;17.50;46.40;;;;;;5001157;28;20037;-85
2023/04/10 06:38:40;;;;;;;15.18;12.43;;;17.10;47.10;;;;;;5004163;28;20470;-84
2023/04/10 06:41:06;;;;;;;19.38;12.13;;;17.00;47.70;;;;;;4980444;28;20037;-83
2023/04/10 06:43:37;;;;;;;13.98;11.52;;;16.70;48.40;;;;;;4990785;28;20030;-84
2023/04/10 06:46:04;;;;;;;13.57;11.45;;;16.60;48.10;;;;;;5004112;28;20026;-84
2023/04/10 06:48:31;;;;;;;17.23;12.52;;;16.50;48.20;;;;;;5017234;28;20036;-84
2023/04/10 06:50:59;;;;;;;15.10;13.32;;;16.40;48.50;;;;;;5004190;28;20046;-84
2023/04/10 06:53:25;;;;;;;17.75;14.52;;;16.40;48.60;;;;;;4999220;28;20041;-83
2023/04/10 06:55:51;;;;;;;16.10;13.57;;;16.30;48.60;;;;;;5008538;28;20023;-84
2023/04/10 06:58:18;;;;;;;15.57;13.05;;;15.90;49.00;;;;;;5012526;28;20033;-83
2023/04/10 07:00:44;;;;;;;17.48;13.45;;;15.70;49.20;;;;;;5016518;28;20098;-83
2023/04/10 07:03:10;;;;;;;23.38;14.95;;;15.60;49.40;;;;;;4998017;28;20034;-86
2023/04/10 07:05:36;;;;;;;20.90;15.63;;;15.50;50.10;;;;;;4998984;28;20495;-85
2023/04/10 07:08:01;;;;;;;24.45;15.48;;;15.60;50.80;;;;;;5027616;28;20044;-84
2023/04/10 07:10:27;;;;;;;21.80;13.82;;;15.80;51.70;;;;;;5023959;28;20032;-84
2023/04/10 07:12:56;;;;;;;21.80;15.45;;;16.40;50.40;;;;;;5017191;28;20038;-84
2023/04/10 07:15:21;;;;;;;17.23;13.90;;;17.10;49.40;;;;;;5016404;28;20018;-85
2023/04/10 07:17:47;;;;;;;17.73;14.52;;;17.60;47.60;;;;;;5015798;28;20030;-84
2023/04/10 07:20:13;;;;;;;30.13;16.08;;;17.60;47.20;;;;;;5014854;28;20025;-85
2023/04/10 07:22:39;;;;;;;20.27;12.93;;;17.30;47.80;;;;;;5015466;28;20034;-86
2023/04/10 07:25:06;;;;;;;15.57;13.77;;;17.00;47.90;;;;;;5002055;28;20029;-83
2023/04/10 07:27:32;;;;;;;23.38;13.32;;;16.70;48.20;;;;;;5021237;28;20055;-85
2023/04/10 07:29:58;;;;;;;16.73;13.50;;;16.60;48.60;;;;;;5022770;28;20033;-86
2023/04/10 07:32:24;;;;;;;15.57;13.13;;;16.70;48.70;;;;;;4997341;28;20045;-84
2023/04/10 07:34:50;;;;;;;21.80;15.02;;;17.00;48.50;;;;;;5008346;28;20033;-84
2023/04/10 07:37:16;;;;;;;17.23;13.60;;;17.10;47.80;;;;;;4995577;28;20026;-85
2023/04/10 07:39:43;;;;;;;21.03;13.07;;;16.80;47.90;;;;;;5027816;28;20053;-84
2023/04/10 07:42:11;;;;;;;18.30;11.20;;;16.70;48.10;;;;;;5019359;28;20069;-85
2023/04/10 07:44:37;;;;;;;17.40;11.50;;;16.60;47.70;;;;;;4990497;28;20032;-85
2023/04/10 07:47:03;;;;;;;19.08;13.43;;;16.70;47.60;;;;;;5019923;28;20030;-86
2023/04/10 07:49:29;;;;;;;19.35;12.23;;;16.80;47.50;;;;;;5019030;28;20436;-84
2023/04/10 07:51:55;;;;;;;20.75;12.32;;;17.00;47.40;;;;;;5020278;28;20014;-86
2023/04/10 07:54:21;;;;;;;12.55;10.40;;;17.20;47.10;;;;;;5017324;28;20026;-87
2023/04/10 07:56:47;;;;;;;12.93;10.85;;;17.30;46.70;;;;;;5012759;28;20022;-84
2023/04/10 07:59:13;;;;;;;14.15;11.82;;;17.30;46.60;;;;;;5028912;28;20085;-86
2023/04/10 08:01:40;;;;;;;19.48;12.05;;;17.10;46.80;;;;;;5029892;28;20042;-85
2023/04/10 08:04:06;;;;;;;18.05;12.02;;;17.20;47.20;;;;;;5005771;28;20103;-84
2023/04/10 08:06:32;;;;;;;16.60;11.43;;;17.40;47.10;;;;;;5021204;28;20033;-84
2023/04/10 08:08:58;;;;;;;17.27;11.82;;;17.70;46.50;;;;;;5011007;28;20026;-86
2023/04/10 08:11:29;;;;;;;25.23;13.40;;;17.60;46.10;;;;;;5019978;28;20053;-85
2023/04/10 08:13:57;;;;;;;22.13;12.68;;;17.60;46.60;;;;;;5024395;28;20038;-85
2023/04/10 08:16:24;;;;;;;18.70;10.63;;;17.60;46.60;;;;;;5027789;28;20400;-86
2023/04/10 08:18:51;;;;;;;13.63;10.65;;;17.50;46.20;;;;;;4998601;28;20018;-85
2023/04/10 08:21:18;;;;;;;12.67;11.00;;;17.60;46.10;;;;;;4992971;28;20021;-85
2023/04/10 08:23:46;;;;;;;21.20;11.93;;;17.50;46.20;;;;;;5001961;28;20641;-85
2023/04/10 08:26:13;;;;;;;15.43;11.75;;;17.40;46.10;;;;;;5022024;28;20061;-85
2023/04/10 08:28:39;;;;;;;11.55;10.32;;;17.40;46.10;;;;;;5004934;28;20029;-86
2023/04/10 08:31:05;;;;;;;14.43;10.98;;;17.30;46.10;;;;;;5005057;28;20092;-86
2023/04/10 08:33:31;;;;;;;27.77;14.98;;;17.40;46.30;;;;;;5023669;28;20509;-85
2023/04/10 08:35:57;;;;;;;11.60;10.30;;;17.70;46.20;;;;;;5022739;28;20018;-86
2023/04/10 08:38:23;;;;;;;16.95;12.18;;;17.80;45.60;;;;;;5005765;28;20034;-84
2023/04/10 08:40:50;;;;;;;12.00;9.73;;;17.50;45.80;;;;;;5020929;28;20014;-83
2023/04/10 08:43:16;;;;;;;12.05;9.95;;;17.40;45.90;;;;;;5020782;28;20049;-84
2023/04/10 08:45:43;;;;;;;15.45;11.32;;;17.20;46.10;;;;;;5018913;28;20022;-84
2023/04/10 08:48:10;;;;;;;16.00;13.40;;;17.10;46.50;;;;;;5019293;28;20026;-83
2023/04/10 08:50:40;;;;;;;17.45;13.52;;;17.20;46.70;;;;;;5024856;28;20101;-84
2023/04/10 08:53:12;;;;;;;16.48;13.93;;;17.00;46.90;;;;;;5017101;28;20038;-84
2023/04/10 08:55:39;;;;;;;17.00;13.45;;;17.00;47.00;;;;;;5001180;28;20042;-85
2023/04/10 08:58:06;;;;;;;;;;;17.10;46.80;;;;;;5003020;28;20038;-84
2023/04/10 09:00:37;;;;;;;20.40;12.63;;;17.40;46.90;;;;;;5026848;28;19917;-85
2023/04/10 09:03:07;;;;;;;18.42;13.02;;;17.90;46.20;;;;;;5034002;28;20045;-85
2023/04/10 09:05:35;;;;;;;26.92;15.35;;;18.20;45.60;;;;;;5018052;28;20099;-85
2023/04/10 09:08:02;;;;;;;20.75;14.10;;;18.60;45.20;;;;;;5025189;28;20049;-86
2023/04/10 09:10:28;;;;;;;20.90;13.48;;;18.80;44.60;;;;;;5010635;28;20030;-86
2023/04/10 09:12:54;;;;;;;20.73;14.70;;;18.60;44.50;;;;;;5005271;28;20117;-85
2023/04/10 09:15:20;;;;;;;16.80;13.90;;;;;;;;;;5013335;28;20022;-86
2023/04/10 09:17:58;;;;;;;29.05;16.20;;;19.00;44.00;;;;;;5016537;28;20028;-84
2023/04/10 09:20:25;;;;;;;23.92;15.07;;;19.80;43.80;;;;;;4987488;28;20026;-85
2023/04/10 09:22:51;;;;;;;19.50;13.00;;;20.40;42.60;;;;;;5005678;28;20025;-84
2023/04/10 09:25:35;;;;;;;15.63;12.68;;;20.40;41.50;;;;;;4999863;28;20022;-84
2023/04/10 09:28:08;;;;;;;25.83;13.60;;;20.00;41.60;;;;;;4988008;28;20026;-85
2023/04/10 09:30:42;;;;;;;21.48;13.93;;;19.80;42.00;;;;;;4998992;28;20034;-85
2023/04/10 09:33:23;;;;;;;15.25;12.50;;;19.30;42.50;;;;;;5016325;28;20038;-84
2023/04/10 09:35:50;;;;;;;20.75;13.80;;;18.80;42.80;;;;;;5015946;28;20029;-84
2023/04/10 09:38:20;;;;;;;16.15;13.18;;;18.30;43.60;;;;;;5008216;28;20072;-84
2023/04/10 09:40:47;;;;;;;20.02;13.68;;;18.00;44.00;;;;;;4993624;28;20033;-84
2023/04/10 09:43:21;;;;;;;20.35;13.95;;;17.90;44.50;;;;;;5015842;28;20495;-84
2023/04/10 09:45:58;;;;;;;21.23;14.57;;;17.60;44.90;;;;;;5002312;28;20052;-83
2023/04/10 09:48:25;;;;;;;20.50;14.48;;;17.40;45.40;;;;;;5019566;28;20494;-84
2023/04/10 09:50:52;;;;;;;22.02;14.35;;;17.20;45.90;;;;;;4999085;28;20480;-86
2023/04/10 09:53:19;;;;;;;19.98;14.07;;;17.10;46.30;;;;;;4989859;28;20112;-85
2023/04/10 09:55:46;;;;;;;;;;;16.90;46.90;;;;;;5011177;28;20022;-83
2023/04/10 09:58:12;;;;;;;24.15;13.88;;;16.80;46.90;;;;;;5002219;28;19912;-85
2023/04/10 10:00:43;;;;;;;21.77;14.88;;;16.70;47.20;;;;;;5015359;28;20451;-83
2023/04/10 10:03:14;;;;;;;16.63;11.65;;;17.00;47.30;;;;;;4997246;28;20034;-85
2023/04/10 10:05:43;;;;;;;19.35;12.85;;;17.70;45.90;;;;;;5015570;28;20025;-84
2023/04/10 10:08:10;;;;;;;20.17;12.77;;;18.30;44.60;;;;;;5023852;28;20025;-84
2023/04/10 10:10:53;;;;;;;14.35;12.27;;;18.80;43.70;;;;;;5014337;28;20539;-86
2023/04/10 10:13:37;;;;;;;16.52;12.13;;;18.80;43.00;;;;;;4998196;28;20046;-86
2023/04/10 10:16:06;;;;;;;20.60;12.77;;;18.50;43.70;;;;;;5008668;28;20453;-83
2023/04/10 10:18:46;;;;;;;17.75;12.27;;;18.30;43.80;;;;;;4998516;28;20483;-85
2023/04/10 10:21:13;;;;;;;15.18;11.45;;;18.40;44.00;;;;;;4997175;28;20026;-84
2023/04/10 10:23:42;;;;;;;20.97;12.53;;;18.60;43.30;;;;;;5015850;28;20060;-83
2023/04/10 10:26:09;;;;;;;16.67;12.80;;;18.60;43.00;;;;;;5014532;28;20274;-85
2023/04/10 10:28:36;;;;;;;16.40;12.48;;;18.70;43.90;;;;;;5010274;28;20030;-85
2023/04/10 10:31:03;;;;;;;19.27;12.13;;;18.70;43.10;;;;;;5002692;28;20037;-82
2023/04/10 10:33:30;;;;;;;15.35;13.15;;;18.60;43.40;;;;;;5020306;28;20048;-84
2023/04/10 10:36:00;;;;;;;13.40;12.07;;;18.60;43.80;;;;;;5019403;28;20072;-85
2023/04/10 10:38:27;;;;;;;13.55;11.70;;;18.60;43.70;;;;;;5020446;28;20025;-84
2023/04/10 10:41:23;;;;;;;17.63;12.20;;;18.50;43.80;;;;;;5024076;28;20014;-86
2023/04/10 10:44:00;;;;;;;19.65;11.93;;;18.20;44.20;;;;;;5021862;28;20033;-85
2023/04/10 10:46:42;;;;;;;12.88;11.05;;;18.00;44.80;;;;;;5010635;28;20014;-83
2023/04/10 10:49:08;;;;;;;13.50;10.68;;;17.80;44.40;;;;;;5019611;28;20030;-84
2023/04/10 10:51:49;;;;;;;15.13;11.77;;;17.50;44.80;;;;;;5030475;28;20352;-84
2023/04/10 10:54:32;;;;;;;13.25;11.02;;;17.30;45.50;;;;;;5014723;28;20046;-83
2023/04/10 10:56:58;;;;;;;12.60;11.32;;;17.40;45.50;;;;;;5003404;28;20037;-85
2023/04/10 10:59:42;;;;;;;13.33;11.30;;;17.30;44.70;;;;;;5005928;28;20037;-84
2023/04/10 11:02:16;;;;;;;14.43;11.32;;;17.40;44.80;;;;;;5006354;28;20050;-85
2023/04/10 11:04:44;;;;;;;14.25;12.40;;;17.40;44.60;;;;;;5000006;28;20034;-85
2023/04/10 11:07:10;;;;;;;19.92;12.88;;;17.20;44.10;;;;;;5003525;28;20468;-83
2023/04/10 11:09:53;;;;;;;16.48;13.77;;;17.20;44.50;;;;;;5017849;28;20034;-84
2023/04/10 11:12:24;;;;;;;19.95;13.38;;;17.20;44.90;;;;;;4984123;28;20041;-85
2023/04/10 11:15:01;;;;;;;17.00;13.18;;;17.10;45.50;;;;;;5016410;28;20442;-81
2023/04/10 11:17:48;;;;;;;15.43;12.80;;;16.90;46.00;;;;;;5014547;28;20009;-82
2023/04/10 11:20:15;;;;;;;21.35;13.35;;;16.80;46.10;;;;;;5025251;28;20486;-83
2023/04/10 11:23:08;;;;;;;19.50;14.00;;;16.60;46.30;;;;;;5007007;28;20026;-83
2023/04/10 11:25:47;;;;;;;17.70;13.60;;;16.60;46.70;;;;;;5005030;28;20022;-86
2023/04/10 11:28:43;;;;;;;19.02;13.07;;;16.60;46.80;;;;;;5016160;28;20129;-85
2023/04/10 11:31:20;;;;;;;20.45;14.23;;;16.90;46.80;;;;;;4992467;28;20030;-85
2023/04/10 11:33:50;;;;;;;;;;;17.00;46.80;;;;;;5009345;28;20038;-85
2023/04/10 11:36:18;;;;;;;17.30;14.00;;;17.00;46.50;;;;;;5025031;28;19905;-87
2023/04/10 11:39:06;;;;;;;22.20;13.38;;;17.00;46.60;;;;;;5008997;28;20018;-86
2023/04/10 11:41:34;;;;;;;23.63;13.80;;;17.00;46.70;;;;;;5008574;28;20022;-85
2023/04/10 11:44:02;;;;;;;19.33;14.02;;;17.00;47.00;;;;;;5000711;28;20127;-85
2023/04/10 11:46:29;;;;;;;14.20;12.70;;;16.90;47.00;;;;;;5011087;28;20026;-85
2023/04/10 11:49:00;;;;;;;18.63;13.63;;;16.80;46.50;;;;;;5012367;28;20022;-86
2023/04/10 11:51:27;;;;;;;18.98;13.75;;;16.70;46.90;;;;;;5019700;28;20121;-85
2023/04/10 11:54:11;;;;;;;22.00;14.32;;;16.50;47.40;;;;;;5024162;28;20026;-86
2023/04/10 11:56:39;;;;;;;16.55;13.18;;;16.50;47.50;;;;;;5010584;28;20034;-85
2023/04/10 11:59:09;;;;;;;23.75;14.65;;;16.30;47.90;;;;;;5001833;28;20042;-84
2023/04/10 12:01:36;;;;;;;19.75;14.52;;;16.30;47.90;;;;;;5001085;28;20142;-84
2023/04/10 12:04:02;;;;;;;18.25;14.43;;;16.20;48.00;;;;;;5018955;28;20365;-85
2023/04/10 12:06:30;;;;;;;17.33;14.35;;;16.20;49.00;;;;;;5018730;28;20561;-84
2023/04/10 12:08:55;;;;;;;17.27;13.88;;;16.20;48.40;;;;;;5002882;28;20064;-84
2023/04/10 12:11:27;;;;;;;20.35;13.98;;;16.20;48.30;;;;;;5002539;28;20030;-85
2023/04/10 12:13:55;;;;;;;15.65;14.00;;;16.00;48.70;;;;;;4989028;28;20038;-84
2023/04/10 12:16:21;;;;;;;18.17;13.43;;;16.00;48.60;;;;;;5020403;28;20041;-83
2023/04/10 12:18:48;;;;;;;18.55;14.15;;;16.00;48.70;;;;;;5017478;28;20029;-83
2023/04/10 12:21:15;;;;;;;21.33;14.77;;;16.10;48.60;;;;;;5013434;28;20043;-80
2023/04/10 12:23:41;;;;;;;17.92;13.18;;;16.10;49.40;;;;;;5014440;28;20088;-85
2023/04/10 12:26:17;;;;;;;25.58;13.00;;;15.90;50.40;;;;;;5025001;28;20033;-83
2023/04/10 12:28:54;;;;;;;27.88;14.55;;;15.40;51.40;;;;;;5003020;28;20399;-82
2023/04/10 12:31:34;;;;;;;23.45;14.13;;;15.20;52.10;;;;;;5015604;28;20026;-83
2023/04/10 12:34:01;;;;;;;21.15;15.30;;;15.00;52.80;;;;;;4999500;28;20034;-84